sensor_id;sensor_type;location;lat;lon;timestamp;P1;durP1;ratioP1;P2;durP2;ratioP2
3487;SDS011;38546;48.170;11.724;2022-10-01T00:01:34;14.27;;;10.90;;
3487;SDS011;38546;48.170;11.724;2022-10-01T00:04:24;14.60;;;12.20;;
3487;SDS011;38546;48.170;11.724;2022-10-01T00:07:16;14.57;;;10.63;;
3487;SDS011;38546;48.170;11.724;2022-10-01T00:10:07;13.13;;;11.30;;
3487;SDS011;38546;48.170;11.724;2022-10-01T00:12:59;12.40;;;11.10;;
3487;SDS011;38546;48.170;11.724;2022-10-01T00:15:48;15.90;;;10.80;;
3487;SDS011;38546;48.170;11.724;2022-10-01T00:18:39;17.10;;;13.10;;
3487;SDS011;38546;48.170;11.724;2022-10-01T00:21:31;16.70;;;12.83;;
3487;SDS011;38546;48.170;11.724;2022-10-01T00:24:20;14.37;;;10.93;;
3487;SDS011;38546;48.170;11.724;2022-10-01T00:27:10;16.70;;;11.23;;
3487;SDS011;38546;48.170;11.724;2022-10-01T00:30:00;13.60;;;11.00;;
3487;SDS011;38546;48.170;11.724;2022-10-01T00:32:55;17.33;;;12.87;;
3487;SDS011;38546;48.170;11.724;2022-10-01T00:35:44;16.93;;;11.60;;
3487;SDS011;38546;48.170;11.724;2022-10-01T00:38:35;17.23;;;13.10;;
3487;SDS011;38546;48.170;11.724;2022-10-01T00:41:31;16.80;;;12.73;;
3487;SDS011;38546;48.170;11.724;2022-10-01T00:44:32;21.40;;;13.30;;
3487;SDS011;38546;48.170;11.724;2022-10-01T00:47:29;19.73;;;13.63;;
3487;SDS011;38546;48.170;11.724;2022-10-01T00:50:40;18.37;;;13.70;;
3487;SDS011;38546;48.170;11.724;2022-10-01T00:53:31;20.53;;;14.10;;
3487;SDS011;38546;48.170;11.724;2022-10-01T00:56:21;16.73;;;12.17;;
3487;SDS011;38546;48.170;11.724;2022-10-01T00:59:10;20.93;;;14.43;;
3487;SDS011;38546;48.170;11.724;2022-10-01T01:02:01;22.23;;;15.50;;
3487;SDS011;38546;48.170;11.724;2022-10-01T01:04:51;22.83;;;15.00;;
3487;SDS011;38546;48.170;11.724;2022-10-01T01:07:42;24.23;;;15.90;;
3487;SDS011;38546;48.170;11.724;2022-10-01T01:19:07;20.73;;;14.47;;
3487;SDS011;38546;48.170;11.724;2022-10-01T01:22:26;21.70;;;14.17;;
3487;SDS011;38546;48.170;11.724;2022-10-01T01:25:22;21.27;;;13.80;;
3487;SDS011;38546;48.170;11.724;2022-10-01T01:28:28;20.80;;;13.07;;
3487;SDS011;38546;48.170;11.724;2022-10-01T01:31:22;22.10;;;15.90;;
3487;SDS011;38546;48.170;11.724;2022-10-01T01:34:19;21.77;;;15.10;;
3487;SDS011;38546;48.170;11.724;2022-10-01T01:37:14;21.50;;;13.40;;
3487;SDS011;38546;48.170;11.724;2022-10-01T01:40:11;17.60;;;12.43;;
3487;SDS011;38546;48.170;11.724;2022-10-01T01:43:04;18.33;;;11.70;;
3487;SDS011;38546;48.170;11.724;2022-10-01T01:45:59;16.60;;;12.57;;
3487;SDS011;38546;48.170;11.724;2022-10-01T01:48:50;17.97;;;12.90;;
3487;SDS011;38546;48.170;11.724;2022-10-01T01:51:44;16.30;;;11.70;;
3487;SDS011;38546;48.170;11.724;2022-10-01T01:54:39;26.23;;;16.07;;
3487;SDS011;38546;48.170;11.724;2022-10-01T01:57:30;18.93;;;12.93;;
3487;SDS011;38546;48.170;11.724;2022-10-01T02:00:19;16.40;;;11.70;;
3487;SDS011;38546;48.170;11.724;2022-10-01T02:03:09;23.37;;;12.83;;
3487;SDS011;38546;48.170;11.724;2022-10-01T02:06:13;20.20;;;14.17;;
3487;SDS011;38546;48.170;11.724;2022-10-01T02:09:22;25.47;;;14.33;;
3487;SDS011;38546;48.170;11.724;2022-10-01T02:12:33;22.13;;;15.20;;
3487;SDS011;38546;48.170;11.724;2022-10-01T02:22:22;27.30;;;17.77;;
3487;SDS011;38546;48.170;11.724;2022-10-01T02:26:10;30.63;;;16.60;;
3487;SDS011;38546;48.170;11.724;2022-10-01T02:29:06;35.43;;;20.90;;
3487;SDS011;38546;48.170;11.724;2022-10-01T02:31:58;27.77;;;17.10;;
3487;SDS011;38546;48.170;11.724;2022-10-01T02:34:49;32.90;;;17.63;;
3487;SDS011;38546;48.170;11.724;2022-10-01T02:37:42;28.80;;;18.33;;
3487;SDS011;38546;48.170;11.724;2022-10-01T02:40:34;25.57;;;17.17;;
3487;SDS011;38546;48.170;11.724;2022-10-01T02:43:44;29.93;;;16.67;;
3487;SDS011;38546;48.170;11.724;2022-10-01T02:46:45;27.13;;;15.10;;
3487;SDS011;38546;48.170;11.724;2022-10-01T02:49:41;26.40;;;16.80;;
3487;SDS011;38546;48.170;11.724;2022-10-01T02:52:54;25.87;;;14.93;;
3487;SDS011;38546;48.170;11.724;2022-10-01T02:55:51;24.80;;;15.20;;
3487;SDS011;38546;48.170;11.724;2022-10-01T02:58:41;21.47;;;14.13;;
3487;SDS011;38546;48.170;11.724;2022-10-01T03:01:32;23.17;;;13.13;;
3487;SDS011;38546;48.170;11.724;2022-10-01T03:04:22;24.97;;;15.43;;
3487;SDS011;38546;48.170;11.724;2022-10-01T03:07:11;24.67;;;15.23;;
3487;SDS011;38546;48.170;11.724;2022-10-01T03:10:03;22.40;;;13.40;;
3487;SDS011;38546;48.170;11.724;2022-10-01T03:12:55;24.27;;;14.77;;
3487;SDS011;38546;48.170;11.724;2022-10-01T03:15:44;25.37;;;15.70;;
3487;SDS011;38546;48.170;11.724;2022-10-01T03:18:34;23.13;;;14.73;;
3487;SDS011;38546;48.170;11.724;2022-10-01T03:21:24;20.93;;;13.27;;
3487;SDS011;38546;48.170;11.724;2022-10-01T03:24:14;21.33;;;13.67;;
3487;SDS011;38546;48.170;11.724;2022-10-01T03:27:04;20.57;;;13.00;;
3487;SDS011;38546;48.170;11.724;2022-10-01T03:29:55;18.63;;;12.87;;
3487;SDS011;38546;48.170;11.724;2022-10-01T03:32:44;19.27;;;12.80;;
3487;SDS011;38546;48.170;11.724;2022-10-01T03:35:33;19.93;;;13.20;;
3487;SDS011;38546;48.170;11.724;2022-10-01T03:38:23;23.50;;;13.80;;
3487;SDS011;38546;48.170;11.724;2022-10-01T03:41:12;23.80;;;13.60;;
3487;SDS011;38546;48.170;11.724;2022-10-01T03:44:02;21.60;;;12.80;;
3487;SDS011;38546;48.170;11.724;2022-10-01T03:46:53;22.03;;;13.87;;
3487;SDS011;38546;48.170;11.724;2022-10-01T03:49:43;20.00;;;13.00;;
3487;SDS011;38546;48.170;11.724;2022-10-01T03:52:32;19.30;;;13.10;;
3487;SDS011;38546;48.170;11.724;2022-10-01T03:55:21;22.90;;;13.20;;
3487;SDS011;38546;48.170;11.724;2022-10-01T03:58:12;20.90;;;13.20;;
3487;SDS011;38546;48.170;11.724;2022-10-01T04:01:01;21.13;;;12.17;;
3487;SDS011;38546;48.170;11.724;2022-10-01T04:03:51;20.40;;;13.27;;
3487;SDS011;38546;48.170;11.724;2022-10-01T04:06:41;18.53;;;12.60;;
3487;SDS011;38546;48.170;11.724;2022-10-01T04:09:31;18.27;;;11.90;;
3487;SDS011;38546;48.170;11.724;2022-10-01T04:12:20;18.00;;;12.27;;
3487;SDS011;38546;48.170;11.724;2022-10-01T04:15:11;18.27;;;11.67;;
3487;SDS011;38546;48.170;11.724;2022-10-01T04:18:01;22.50;;;13.80;;
3487;SDS011;38546;48.170;11.724;2022-10-01T04:20:53;23.70;;;12.27;;
3487;SDS011;38546;48.170;11.724;2022-10-01T04:23:42;19.47;;;12.97;;
3487;SDS011;38546;48.170;11.724;2022-10-01T04:26:32;17.10;;;12.17;;
3487;SDS011;38546;48.170;11.724;2022-10-01T04:29:21;17.50;;;12.93;;
3487;SDS011;38546;48.170;11.724;2022-10-01T04:32:11;21.07;;;13.23;;
3487;SDS011;38546;48.170;11.724;2022-10-01T04:35:00;21.97;;;13.60;;
3487;SDS011;38546;48.170;11.724;2022-10-01T04:37:59;18.93;;;12.67;;
3487;SDS011;38546;48.170;11.724;2022-10-01T04:40:51;21.23;;;14.27;;
3487;SDS011;38546;48.170;11.724;2022-10-01T04:43:41;19.87;;;12.10;;
3487;SDS011;38546;48.170;11.724;2022-10-01T04:46:31;17.20;;;12.27;;
3487;SDS011;38546;48.170;11.724;2022-10-01T04:49:20;20.27;;;12.43;;
3487;SDS011;38546;48.170;11.724;2022-10-01T04:52:10;15.87;;;10.87;;
3487;SDS011;38546;48.170;11.724;2022-10-01T04:54:59;17.07;;;11.97;;
3487;SDS011;38546;48.170;11.724;2022-10-01T04:57:48;20.83;;;12.70;;
3487;SDS011;38546;48.170;11.724;2022-10-01T05:00:38;18.43;;;12.43;;
3487;SDS011;38546;48.170;11.724;2022-10-01T05:03:27;20.77;;;12.97;;
3487;SDS011;38546;48.170;11.724;2022-10-01T05:06:16;22.70;;;14.63;;
3487;SDS011;38546;48.170;11.724;2022-10-01T05:09:07;15.60;;;10.73;;
3487;SDS011;38546;48.170;11.724;2022-10-01T05:11:56;18.20;;;12.60;;
3487;SDS011;38546;48.170;11.724;2022-10-01T05:14:47;19.33;;;11.20;;
3487;SDS011;38546;48.170;11.724;2022-10-01T05:17:36;22.20;;;12.97;;
3487;SDS011;38546;48.170;11.724;2022-10-01T05:20:25;18.70;;;12.37;;
3487;SDS011;38546;48.170;11.724;2022-10-01T05:23:15;17.53;;;11.77;;
3487;SDS011;38546;48.170;11.724;2022-10-01T05:26:05;19.27;;;11.20;;
3487;SDS011;38546;48.170;11.724;2022-10-01T05:28:55;21.10;;;11.57;;
3487;SDS011;38546;48.170;11.724;2022-10-01T05:31:48;22.33;;;13.20;;
3487;SDS011;38546;48.170;11.724;2022-10-01T05:34:38;17.30;;;11.10;;
3487;SDS011;38546;48.170;11.724;2022-10-01T05:37:28;16.17;;;11.17;;
3487;SDS011;38546;48.170;11.724;2022-10-01T05:40:17;15.60;;;10.47;;
3487;SDS011;38546;48.170;11.724;2022-10-01T05:43:08;18.97;;;11.70;;
3487;SDS011;38546;48.170;11.724;2022-10-01T05:45:59;20.90;;;13.77;;
3487;SDS011;38546;48.170;11.724;2022-10-01T05:48:52;29.23;;;16.90;;
3487;SDS011;38546;48.170;11.724;2022-10-01T05:51:45;44.83;;;22.60;;
3487;SDS011;38546;48.170;11.724;2022-10-01T05:54:34;50.40;;;21.73;;
3487;SDS011;38546;48.170;11.724;2022-10-01T05:57:23;37.13;;;19.13;;
3487;SDS011;38546;48.170;11.724;2022-10-01T06:00:13;28.67;;;15.00;;
3487;SDS011;38546;48.170;11.724;2022-10-01T06:03:03;20.10;;;12.97;;
3487;SDS011;38546;48.170;11.724;2022-10-01T06:05:53;22.10;;;11.60;;
3487;SDS011;38546;48.170;11.724;2022-10-01T06:08:43;18.83;;;11.83;;
3487;SDS011;38546;48.170;11.724;2022-10-01T06:11:34;20.20;;;11.97;;
3487;SDS011;38546;48.170;11.724;2022-10-01T06:14:24;22.60;;;12.50;;
3487;SDS011;38546;48.170;11.724;2022-10-01T06:17:12;17.63;;;12.33;;
3487;SDS011;38546;48.170;11.724;2022-10-01T06:20:01;17.00;;;11.73;;
3487;SDS011;38546;48.170;11.724;2022-10-01T06:22:52;24.40;;;12.87;;
3487;SDS011;38546;48.170;11.724;2022-10-01T06:25:43;18.67;;;12.80;;
3487;SDS011;38546;48.170;11.724;2022-10-01T06:28:33;23.63;;;15.80;;
3487;SDS011;38546;48.170;11.724;2022-10-01T06:31:22;22.77;;;14.30;;
3487;SDS011;38546;48.170;11.724;2022-10-01T06:34:12;19.60;;;13.70;;
3487;SDS011;38546;48.170;11.724;2022-10-01T06:37:02;19.40;;;12.23;;
3487;SDS011;38546;48.170;11.724;2022-10-01T06:39:54;16.23;;;11.20;;
3487;SDS011;38546;48.170;11.724;2022-10-01T06:42:47;19.40;;;12.97;;
3487;SDS011;38546;48.170;11.724;2022-10-01T06:45:38;19.53;;;12.07;;
3487;SDS011;38546;48.170;11.724;2022-10-01T06:48:29;14.57;;;10.30;;
3487;SDS011;38546;48.170;11.724;2022-10-01T06:51:20;13.87;;;10.00;;
3487;SDS011;38546;48.170;11.724;2022-10-01T06:55:36;13.17;;;9.13;;
3487;SDS011;38546;48.170;11.724;2022-10-01T06:58:29;13.10;;;8.50;;
3487;SDS011;38546;48.170;11.724;2022-10-01T07:01:18;14.57;;;9.83;;
3487;SDS011;38546;48.170;11.724;2022-10-01T07:04:09;13.27;;;8.37;;
3487;SDS011;38546;48.170;11.724;2022-10-01T07:07:00;12.07;;;8.20;;
3487;SDS011;38546;48.170;11.724;2022-10-01T07:09:50;13.40;;;8.90;;
3487;SDS011;38546;48.170;11.724;2022-10-01T07:12:39;9.23;;;6.63;;
3487;SDS011;38546;48.170;11.724;2022-10-01T07:15:29;12.57;;;8.50;;
3487;SDS011;38546;48.170;11.724;2022-10-01T07:18:18;12.60;;;9.57;;
3487;SDS011;38546;48.170;11.724;2022-10-01T07:21:08;12.30;;;9.40;;
3487;SDS011;38546;48.170;11.724;2022-10-01T07:23:58;11.60;;;7.80;;
3487;SDS011;38546;48.170;11.724;2022-10-01T07:26:47;11.37;;;8.97;;
3487;SDS011;38546;48.170;11.724;2022-10-01T07:29:38;9.87;;;8.87;;
3487;SDS011;38546;48.170;11.724;2022-10-01T07:32:29;8.60;;;7.13;;
3487;SDS011;38546;48.170;11.724;2022-10-01T07:35:19;8.77;;;7.47;;
3487;SDS011;38546;48.170;11.724;2022-10-01T07:38:08;7.63;;;5.90;;
3487;SDS011;38546;48.170;11.724;2022-10-01T07:40:58;7.17;;;6.47;;
3487;SDS011;38546;48.170;11.724;2022-10-01T07:43:49;9.37;;;5.77;;
3487;SDS011;38546;48.170;11.724;2022-10-01T07:46:39;10.10;;;7.10;;
3487;SDS011;38546;48.170;11.724;2022-10-01T07:49:28;8.60;;;6.30;;
3487;SDS011;38546;48.170;11.724;2022-10-01T07:52:18;6.67;;;5.00;;
3487;SDS011;38546;48.170;11.724;2022-10-01T07:55:07;8.53;;;5.40;;
3487;SDS011;38546;48.170;11.724;2022-10-01T07:57:58;5.90;;;5.10;;
3487;SDS011;38546;48.170;11.724;2022-10-01T08:00:51;10.33;;;4.90;;
3487;SDS011;38546;48.170;11.724;2022-10-01T08:03:49;5.63;;;4.30;;
3487;SDS011;38546;48.170;11.724;2022-10-01T08:06:39;5.03;;;4.57;;
3487;SDS011;38546;48.170;11.724;2022-10-01T08:09:30;8.10;;;6.67;;
3487;SDS011;38546;48.170;11.724;2022-10-01T08:12:20;5.93;;;4.67;;
3487;SDS011;38546;48.170;11.724;2022-10-01T08:15:10;4.27;;;3.97;;
3487;SDS011;38546;48.170;11.724;2022-10-01T08:18:03;4.23;;;3.87;;
3487;SDS011;38546;48.170;11.724;2022-10-01T08:20:53;4.83;;;4.00;;
3487;SDS011;38546;48.170;11.724;2022-10-01T08:23:42;3.80;;;3.50;;
3487;SDS011;38546;48.170;11.724;2022-10-01T08:26:33;4.77;;;3.70;;
3487;SDS011;38546;48.170;11.724;2022-10-01T08:29:23;3.20;;;2.90;;
3487;SDS011;38546;48.170;11.724;2022-10-01T08:32:12;4.37;;;2.90;;
3487;SDS011;38546;48.170;11.724;2022-10-01T08:35:05;3.07;;;2.83;;
3487;SDS011;38546;48.170;11.724;2022-10-01T08:38:00;2.90;;;2.70;;
3487;SDS011;38546;48.170;11.724;2022-10-01T08:40:51;2.70;;;2.50;;
3487;SDS011;38546;48.170;11.724;2022-10-01T08:43:41;2.50;;;2.40;;
3487;SDS011;38546;48.170;11.724;2022-10-01T08:46:33;2.20;;;2.00;;
3487;SDS011;38546;48.170;11.724;2022-10-01T08:49:26;2.87;;;2.67;;
3487;SDS011;38546;48.170;11.724;2022-10-01T08:52:24;2.40;;;2.30;;
3487;SDS011;38546;48.170;11.724;2022-10-01T08:55:19;5.17;;;2.77;;
3487;SDS011;38546;48.170;11.724;2022-10-01T08:58:20;2.03;;;1.93;;
3487;SDS011;38546;48.170;11.724;2022-10-01T09:01:16;2.47;;;1.80;;
3487;SDS011;38546;48.170;11.724;2022-10-01T09:04:08;2.83;;;2.63;;
3487;SDS011;38546;48.170;11.724;2022-10-01T09:07:01;4.43;;;2.43;;
3487;SDS011;38546;48.170;11.724;2022-10-01T09:10:24;2.40;;;2.30;;
3487;SDS011;38546;48.170;11.724;2022-10-01T09:13:57;2.43;;;2.23;;
3487;SDS011;38546;48.170;11.724;2022-10-01T09:28:44;2.10;;;2.00;;
3487;SDS011;38546;48.170;11.724;2022-10-01T09:31:40;1.70;;;1.60;;
3487;SDS011;38546;48.170;11.724;2022-10-01T09:34:38;2.30;;;2.10;;
3487;SDS011;38546;48.170;11.724;2022-10-01T09:37:43;2.50;;;2.40;;
3487;SDS011;38546;48.170;11.724;2022-10-01T09:43:56;2.57;;;2.37;;
3487;SDS011;38546;48.170;11.724;2022-10-01T09:46:46;2.30;;;2.17;;
3487;SDS011;38546;48.170;11.724;2022-10-01T09:49:39;2.33;;;2.23;;
3487;SDS011;38546;48.170;11.724;2022-10-01T09:52:35;2.30;;;2.10;;
3487;SDS011;38546;48.170;11.724;2022-10-01T09:55:29;2.80;;;2.60;;
3487;SDS011;38546;48.170;11.724;2022-10-01T09:58:27;2.63;;;2.43;;
3487;SDS011;38546;48.170;11.724;2022-10-01T10:01:22;2.50;;;2.30;;
3487;SDS011;38546;48.170;11.724;2022-10-01T10:04:34;7.63;;;2.47;;
3487;SDS011;38546;48.170;11.724;2022-10-01T10:07:23;3.03;;;2.70;;
3487;SDS011;38546;48.170;11.724;2022-10-01T10:10:17;2.87;;;2.60;;
3487;SDS011;38546;48.170;11.724;2022-10-01T10:13:28;2.30;;;2.17;;
3487;SDS011;38546;48.170;11.724;2022-10-01T10:16:30;2.70;;;2.50;;
3487;SDS011;38546;48.170;11.724;2022-10-01T10:19:25;2.63;;;2.50;;
3487;SDS011;38546;48.170;11.724;2022-10-01T10:22:20;2.90;;;2.70;;
3487;SDS011;38546;48.170;11.724;2022-10-01T10:25:22;2.93;;;2.77;;
3487;SDS011;38546;48.170;11.724;2022-10-01T10:28:19;4.13;;;2.73;;
3487;SDS011;38546;48.170;11.724;2022-10-01T10:31:15;4.90;;;2.90;;
3487;SDS011;38546;48.170;11.724;2022-10-01T10:37:44;4.57;;;3.60;;
3487;SDS011;38546;48.170;11.724;2022-10-01T10:40:41;2.67;;;2.47;;
3487;SDS011;38546;48.170;11.724;2022-10-01T10:43:35;4.00;;;3.60;;
3487;SDS011;38546;48.170;11.724;2022-10-01T10:46:33;3.23;;;2.93;;
3487;SDS011;38546;48.170;11.724;2022-10-01T10:49:25;3.00;;;2.80;;
3487;SDS011;38546;48.170;11.724;2022-10-01T10:52:27;3.30;;;3.10;;
3487;SDS011;38546;48.170;11.724;2022-10-01T10:55:29;3.37;;;3.07;;
3487;SDS011;38546;48.170;11.724;2022-10-01T10:58:22;3.30;;;3.10;;
3487;SDS011;38546;48.170;11.724;2022-10-01T11:01:24;3.20;;;2.87;;
3487;SDS011;38546;48.170;11.724;2022-10-01T11:04:35;3.73;;;3.43;;
3487;SDS011;38546;48.170;11.724;2022-10-01T11:07:29;3.93;;;3.57;;
3487;SDS011;38546;48.170;11.724;2022-10-01T11:24:04;4.93;;;4.30;;
3487;SDS011;38546;48.170;11.724;2022-10-01T11:31:14;27.80;;;10.33;;
3487;SDS011;38546;48.170;11.724;2022-10-01T11:35:42;8.40;;;5.40;;
3487;SDS011;38546;48.170;11.724;2022-10-01T11:43:10;7.50;;;4.00;;
3487;SDS011;38546;48.170;11.724;2022-10-01T11:46:23;5.40;;;4.90;;
3487;SDS011;38546;48.170;11.724;2022-10-01T11:50:52;6.70;;;4.60;;
3487;SDS011;38546;48.170;11.724;2022-10-01T11:53:51;5.00;;;4.50;;
3487;SDS011;38546;48.170;11.724;2022-10-01T11:56:47;8.30;;;3.77;;
3487;SDS011;38546;48.170;11.724;2022-10-01T12:00:01;5.67;;;4.70;;
3487;SDS011;38546;48.170;11.724;2022-10-01T12:02:57;4.13;;;3.83;;
3487;SDS011;38546;48.170;11.724;2022-10-01T12:05:49;5.03;;;4.60;;
3487;SDS011;38546;48.170;11.724;2022-10-01T12:08:40;4.63;;;4.17;;
3487;SDS011;38546;48.170;11.724;2022-10-01T12:11:46;5.33;;;4.40;;
3487;SDS011;38546;48.170;11.724;2022-10-01T12:14:53;3.80;;;3.50;;
3487;SDS011;38546;48.170;11.724;2022-10-01T12:18:20;4.53;;;3.50;;
3487;SDS011;38546;48.170;11.724;2022-10-01T12:21:50;3.97;;;3.60;;
3487;SDS011;38546;48.170;11.724;2022-10-01T12:25:10;3.37;;;3.07;;
3487;SDS011;38546;48.170;11.724;2022-10-01T12:28:03;4.23;;;3.47;;
3487;SDS011;38546;48.170;11.724;2022-10-01T12:31:46;3.30;;;3.00;;
3487;SDS011;38546;48.170;11.724;2022-10-01T12:36:24;3.97;;;2.90;;
3487;SDS011;38546;48.170;11.724;2022-10-01T12:39:45;3.70;;;3.40;;
3487;SDS011;38546;48.170;11.724;2022-10-01T12:49:26;3.53;;;3.13;;
3487;SDS011;38546;48.170;11.724;2022-10-01T12:59:05;4.37;;;3.93;;
3487;SDS011;38546;48.170;11.724;2022-10-01T13:02:50;4.27;;;3.97;;
3487;SDS011;38546;48.170;11.724;2022-10-01T13:06:26;4.80;;;3.20;;
3487;SDS011;38546;48.170;11.724;2022-10-01T13:09:50;4.23;;;3.03;;
3487;SDS011;38546;48.170;11.724;2022-10-01T13:13:37;3.40;;;3.17;;
3487;SDS011;38546;48.170;11.724;2022-10-01T13:16:35;3.63;;;3.30;;
3487;SDS011;38546;48.170;11.724;2022-10-01T13:19:38;3.43;;;3.07;;
3487;SDS011;38546;48.170;11.724;2022-10-01T13:22:54;3.77;;;3.53;;
3487;SDS011;38546;48.170;11.724;2022-10-01T13:26:10;4.80;;;3.53;;
3487;SDS011;38546;48.170;11.724;2022-10-01T13:29:29;3.97;;;3.53;;
3487;SDS011;38546;48.170;11.724;2022-10-01T13:33:58;6.53;;;4.57;;
3487;SDS011;38546;48.170;11.724;2022-10-01T13:36:49;4.63;;;4.00;;
3487;SDS011;38546;48.170;11.724;2022-10-01T13:39:39;3.90;;;3.10;;
3487;SDS011;38546;48.170;11.724;2022-10-01T13:42:43;6.37;;;3.37;;
3487;SDS011;38546;48.170;11.724;2022-10-01T13:48:44;3.77;;;3.47;;
3487;SDS011;38546;48.170;11.724;2022-10-01T13:51:36;3.70;;;3.40;;
3487;SDS011;38546;48.170;11.724;2022-10-01T13:54:38;7.83;;;3.90;;
3487;SDS011;38546;48.170;11.724;2022-10-01T13:57:38;3.77;;;3.07;;
3487;SDS011;38546;48.170;11.724;2022-10-01T14:00:29;3.00;;;2.80;;
3487;SDS011;38546;48.170;11.724;2022-10-01T14:04:26;2.77;;;2.53;;
3487;SDS011;38546;48.170;11.724;2022-10-01T14:07:29;2.40;;;2.30;;
3487;SDS011;38546;48.170;11.724;2022-10-01T14:10:29;2.60;;;2.50;;
3487;SDS011;38546;48.170;11.724;2022-10-01T14:18:26;2.33;;;2.23;;
3487;SDS011;38546;48.170;11.724;2022-10-01T14:21:34;4.87;;;4.50;;
3487;SDS011;38546;48.170;11.724;2022-10-01T14:29:40;6.20;;;4.77;;
3487;SDS011;38546;48.170;11.724;2022-10-01T14:33:11;11.53;;;9.17;;
3487;SDS011;38546;48.170;11.724;2022-10-01T14:36:34;30.80;;;17.70;;
3487;SDS011;38546;48.170;11.724;2022-10-01T14:39:31;18.67;;;13.37;;
3487;SDS011;38546;48.170;11.724;2022-10-01T14:42:21;4.00;;;3.70;;
3487;SDS011;38546;48.170;11.724;2022-10-01T14:45:14;2.30;;;2.10;;
3487;SDS011;38546;48.170;11.724;2022-10-01T14:48:08;2.07;;;1.97;;
3487;SDS011;38546;48.170;11.724;2022-10-01T14:50:59;2.27;;;2.17;;
3487;SDS011;38546;48.170;11.724;2022-10-01T14:53:51;3.00;;;2.77;;
3487;SDS011;38546;48.170;11.724;2022-10-01T14:56:51;2.20;;;2.10;;
3487;SDS011;38546;48.170;11.724;2022-10-01T14:59:41;2.20;;;2.10;;
3487;SDS011;38546;48.170;11.724;2022-10-01T15:02:33;2.00;;;1.90;;
3487;SDS011;38546;48.170;11.724;2022-10-01T15:05:26;2.77;;;2.27;;
3487;SDS011;38546;48.170;11.724;2022-10-01T15:08:22;2.43;;;2.23;;
3487;SDS011;38546;48.170;11.724;2022-10-01T15:11:28;2.23;;;2.13;;
3487;SDS011;38546;48.170;11.724;2022-10-01T15:14:20;2.30;;;2.17;;
3487;SDS011;38546;48.170;11.724;2022-10-01T15:17:15;3.43;;;3.23;;
3487;SDS011;38546;48.170;11.724;2022-10-01T15:20:14;38.07;;;19.90;;
3487;SDS011;38546;48.170;11.724;2022-10-01T15:23:04;3.30;;;3.10;;
3487;SDS011;38546;48.170;11.724;2022-10-01T15:25:54;4.87;;;4.50;;
3487;SDS011;38546;48.170;11.724;2022-10-01T15:28:46;5.00;;;4.50;;
3487;SDS011;38546;48.170;11.724;2022-10-01T15:31:35;5.20;;;4.70;;
3487;SDS011;38546;48.170;11.724;2022-10-01T15:34:25;3.27;;;2.97;;
3487;SDS011;38546;48.170;11.724;2022-10-01T15:37:17;2.87;;;2.67;;
3487;SDS011;38546;48.170;11.724;2022-10-01T15:40:20;2.90;;;2.73;;
3487;SDS011;38546;48.170;11.724;2022-10-01T15:43:23;3.40;;;3.10;;
3487;SDS011;38546;48.170;11.724;2022-10-01T15:46:24;5.00;;;4.60;;
3487;SDS011;38546;48.170;11.724;2022-10-01T15:49:19;5.90;;;5.03;;
3487;SDS011;38546;48.170;11.724;2022-10-01T15:52:12;15.23;;;13.67;;
3487;SDS011;38546;48.170;11.724;2022-10-01T15:55:30;2.93;;;2.73;;
3487;SDS011;38546;48.170;11.724;2022-10-01T15:59:00;3.10;;;2.90;;
3487;SDS011;38546;48.170;11.724;2022-10-01T16:02:02;4.03;;;3.47;;
3487;SDS011;38546;48.170;11.724;2022-10-01T16:05:04;9.73;;;6.77;;
3487;SDS011;38546;48.170;11.724;2022-10-01T16:07:55;7.40;;;4.90;;
3487;SDS011;38546;48.170;11.724;2022-10-01T16:23:51;3.20;;;2.90;;
3487;SDS011;38546;48.170;11.724;2022-10-01T16:26:43;3.43;;;2.90;;
3487;SDS011;38546;48.170;11.724;2022-10-01T16:29:34;3.73;;;3.43;;
3487;SDS011;38546;48.170;11.724;2022-10-01T16:32:24;4.90;;;4.40;;
3487;SDS011;38546;48.170;11.724;2022-10-01T16:35:18;3.77;;;3.47;;
3487;SDS011;38546;48.170;11.724;2022-10-01T16:38:20;4.90;;;3.87;;
3487;SDS011;38546;48.170;11.724;2022-10-01T16:41:10;3.40;;;3.10;;
3487;SDS011;38546;48.170;11.724;2022-10-01T16:44:02;4.07;;;3.10;;
3487;SDS011;38546;48.170;11.724;2022-10-01T16:46:54;3.90;;;3.27;;
3487;SDS011;38546;48.170;11.724;2022-10-01T16:49:44;4.80;;;3.00;;
3487;SDS011;38546;48.170;11.724;2022-10-01T16:52:35;7.47;;;3.07;;
3487;SDS011;38546;48.170;11.724;2022-10-01T16:55:26;3.80;;;3.27;;
3487;SDS011;38546;48.170;11.724;2022-10-01T16:58:21;3.23;;;2.30;;
3487;SDS011;38546;48.170;11.724;2022-10-01T17:01:12;2.80;;;2.53;;
3487;SDS011;38546;48.170;11.724;2022-10-01T17:04:02;3.30;;;2.40;;
3487;SDS011;38546;48.170;11.724;2022-10-01T17:06:52;2.80;;;2.20;;
3487;SDS011;38546;48.170;11.724;2022-10-01T17:09:41;2.83;;;2.63;;
3487;SDS011;38546;48.170;11.724;2022-10-01T17:12:30;2.50;;;2.40;;
3487;SDS011;38546;48.170;11.724;2022-10-01T17:15:20;5.13;;;3.77;;
3487;SDS011;38546;48.170;11.724;2022-10-01T17:18:14;5.73;;;2.90;;
3487;SDS011;38546;48.170;11.724;2022-10-01T17:21:03;2.40;;;2.20;;
3487;SDS011;38546;48.170;11.724;2022-10-01T17:23:53;2.30;;;2.20;;
3487;SDS011;38546;48.170;11.724;2022-10-01T17:26:42;1.80;;;1.70;;
3487;SDS011;38546;48.170;11.724;2022-10-01T17:29:33;2.20;;;2.10;;
3487;SDS011;38546;48.170;11.724;2022-10-01T17:32:22;2.10;;;2.00;;
3487;SDS011;38546;48.170;11.724;2022-10-01T17:35:12;2.30;;;2.20;;
3487;SDS011;38546;48.170;11.724;2022-10-01T17:38:03;1.93;;;1.83;;
3487;SDS011;38546;48.170;11.724;2022-10-01T17:40:53;2.17;;;2.07;;
3487;SDS011;38546;48.170;11.724;2022-10-01T17:43:42;1.97;;;1.87;;
3487;SDS011;38546;48.170;11.724;2022-10-01T17:46:32;1.73;;;1.63;;
3487;SDS011;38546;48.170;11.724;2022-10-01T17:49:21;2.30;;;1.67;;
3487;SDS011;38546;48.170;11.724;2022-10-01T17:52:10;2.10;;;2.00;;
3487;SDS011;38546;48.170;11.724;2022-10-01T17:54:59;1.63;;;1.60;;
3487;SDS011;38546;48.170;11.724;2022-10-01T17:57:49;2.27;;;2.07;;
3487;SDS011;38546;48.170;11.724;2022-10-01T18:00:41;2.30;;;2.10;;
3487;SDS011;38546;48.170;11.724;2022-10-01T18:03:30;3.43;;;2.67;;
3487;SDS011;38546;48.170;11.724;2022-10-01T18:06:19;2.60;;;2.43;;
3487;SDS011;38546;48.170;11.724;2022-10-01T18:09:10;2.10;;;2.00;;
3487;SDS011;38546;48.170;11.724;2022-10-01T18:11:59;6.63;;;1.80;;
3487;SDS011;38546;48.170;11.724;2022-10-01T18:14:49;2.10;;;2.00;;
3487;SDS011;38546;48.170;11.724;2022-10-01T18:17:39;1.97;;;1.90;;
3487;SDS011;38546;48.170;11.724;2022-10-01T18:20:28;1.80;;;1.70;;
3487;SDS011;38546;48.170;11.724;2022-10-01T18:23:19;2.40;;;2.30;;
3487;SDS011;38546;48.170;11.724;2022-10-01T18:26:09;1.97;;;1.87;;
3487;SDS011;38546;48.170;11.724;2022-10-01T18:28:58;2.03;;;1.93;;
3487;SDS011;38546;48.170;11.724;2022-10-01T18:31:51;2.00;;;1.90;;
3487;SDS011;38546;48.170;11.724;2022-10-01T18:35:12;2.80;;;2.30;;
3487;SDS011;38546;48.170;11.724;2022-10-01T18:38:11;2.03;;;1.93;;
3487;SDS011;38546;48.170;11.724;2022-10-01T18:41:27;2.17;;;1.97;;
3487;SDS011;38546;48.170;11.724;2022-10-01T18:44:22;3.57;;;2.03;;
3487;SDS011;38546;48.170;11.724;2022-10-01T18:47:33;2.27;;;1.97;;
3487;SDS011;38546;48.170;11.724;2022-10-01T18:50:45;2.00;;;1.90;;
3487;SDS011;38546;48.170;11.724;2022-10-01T19:08:59;2.17;;;1.93;;
3487;SDS011;38546;48.170;11.724;2022-10-01T19:19:28;1.53;;;1.50;;
3487;SDS011;38546;48.170;11.724;2022-10-01T19:25:53;1.97;;;1.70;;
3487;SDS011;38546;48.170;11.724;2022-10-01T19:32:54;1.60;;;1.60;;
3487;SDS011;38546;48.170;11.724;2022-10-01T19:35:51;1.80;;;1.70;;
3487;SDS011;38546;48.170;11.724;2022-10-01T19:38:45;1.63;;;1.57;;